Accueil
METAR-TAF:

METAR-TAF

Aéroports :

Aéroport de Caen - Carpiquet

Caen, France

latitude: 49-11N, longitude: 000-27W, altitude: 78 m

Observation

Le bulletin a été fait il y a 33 minutes, à 18:30 UTC
Vent 5 kt de nord/nord-ouest, variant entre ouest/nord-ouest et nord
Température 16°C
Humidité 94%
Pression 1021 hPa
Visibilité: 3300 m
Ciel couvert à une hauteur de 200 ft
brume

METAR: LFRK 201830Z AUTO 33005KT 290V360 3300 BR OVC002 16/15 Q1021 NOSIG

Heure: 21:03 (19:03 UTC)

Prévision

Le bulletin a été fait il y a 44 minutes, à 18:19 UTC
Prévision valable du 20 à 18 UTC au 20 à 24 UTC
Vent 6 kt de nord
Visibilité 10 km ou plus
Nuages fragmentés à une hauteur de 200 ft
Temporairement
du 20 à 18 UTC au 20 à 24 UTC
Visibilité: 3000 m
brume

TAF: LFRK 201819Z 2018/2024 35006KT 9999 BKN002 TEMPO 2018/2024 3000 BR

Observations et prévisions météorologiques de plus de 4000 aéroports (messages METAR et TAF).

Les stations disponibles sont représentées par des disques jaunes et rouges sur la carte.

Passer la souris dessus pour voir le nom de la station.

Cliquer dessus pour voir les observations et prévisions météorologiques.

Pour changer de carte: cliquez sur les boutons verts avec une croix noire pour zoomer, sur le bouton vert avec un tiret pour effectuer un zoom arrière, ou sur les flèches vertes pour les cartes adjacentes.


METAR-TAF: